createdAt,value
2022-08-04T00:00:34.873Z,15.9
2022-08-04T00:10:34.872Z,15.9
2022-08-04T00:20:34.873Z,15.9
2022-08-04T00:30:34.875Z,16
2022-08-04T00:40:34.875Z,16
2022-08-04T00:50:34.882Z,15.9
2022-08-04T00:55:34.875Z,15.9
2022-08-04T01:05:37.491Z,15.9
2022-08-04T01:10:34.883Z,15.9
2022-08-04T01:15:56.417Z,15.9
2022-08-04T01:20:34.888Z,15.9
2022-08-04T01:30:34.883Z,15.9
2022-08-04T01:40:34.898Z,15.9
2022-08-04T01:45:34.886Z,15.9
2022-08-04T01:55:54.156Z,15.9
2022-08-04T02:00:34.886Z,15.9
2022-08-04T02:06:03.541Z,15.9
2022-08-04T02:15:34.876Z,15.9
2022-08-04T02:20:34.888Z,15.9
2022-08-04T02:30:34.883Z,16
2022-08-04T02:40:34.890Z,15.9
2022-08-04T02:50:34.892Z,16
2022-08-04T03:00:34.875Z,16
2022-08-04T03:05:57.771Z,16
2022-08-04T03:15:34.877Z,16
2022-08-04T03:20:34.913Z,16
2022-08-04T03:25:34.900Z,16
2022-08-04T03:35:34.913Z,16
2022-08-04T03:45:34.882Z,16
2022-08-04T03:50:38.256Z,16
2022-08-04T03:55:34.892Z,16
2022-08-04T04:05:40.349Z,16
2022-08-04T04:10:34.907Z,16
2022-08-04T04:20:34.899Z,16
2022-08-04T04:25:34.900Z,16
2022-08-04T04:30:34.911Z,16
2022-08-04T04:40:34.900Z,15.9
2022-08-04T04:50:36.882Z,15.9
2022-08-04T05:00:34.910Z,16
2022-08-04T05:10:34.905Z,16.1
2022-08-04T05:15:34.907Z,16
2022-08-04T05:20:34.921Z,16
2022-08-04T05:30:34.911Z,16
2022-08-04T05:35:55.793Z,16
2022-08-04T05:40:34.919Z,16
2022-08-04T05:45:39.252Z,16
2022-08-04T05:55:58.279Z,16
2022-08-04T06:05:34.937Z,16
2022-08-04T06:10:34.953Z,16
2022-08-04T06:20:35.091Z,15.9
2022-08-04T06:25:34.959Z,15.9
2022-08-04T06:35:34.960Z,15.9
2022-08-04T06:45:35.169Z,15.9
2022-08-04T06:55:34.952Z,15.9
2022-08-04T07:05:34.950Z,15.9
2022-08-04T07:10:34.958Z,15.9
2022-08-04T07:20:36.727Z,15.9
2022-08-04T07:30:34.941Z,15.9
2022-08-04T07:36:09.264Z,15.9
2022-08-04T07:45:34.961Z,15.9
2022-08-04T07:55:34.958Z,15.9
2022-08-04T08:05:34.967Z,16
2022-08-04T08:10:34.964Z,16.1
2022-08-04T08:15:34.968Z,16.1
2022-08-04T08:25:34.964Z,16
2022-08-04T08:35:34.966Z,16.1
2022-08-04T08:40:40.326Z,16.1
2022-08-04T08:50:35.002Z,16.1
2022-08-04T08:55:35.090Z,16.1
2022-08-04T09:05:34.966Z,16.1
2022-08-04T09:10:34.983Z,16.1
2022-08-04T09:20:34.977Z,16.1
2022-08-04T09:30:34.954Z,16
2022-08-04T09:35:34.966Z,16.1
2022-08-04T09:45:43.277Z,16.1
2022-08-04T09:50:34.973Z,16.1
2022-08-04T10:00:41.365Z,16.1
2022-08-04T10:10:34.975Z,16.2
2022-08-04T10:20:46.509Z,16.1
2022-08-04T10:30:34.969Z,16.2
2022-08-04T10:35:34.975Z,16.1
2022-08-04T10:40:34.990Z,16
2022-08-04T10:50:34.968Z,16.1
2022-08-04T11:00:34.977Z,16.1
2022-08-04T11:10:34.981Z,16.1
2022-08-04T11:20:36.365Z,16.1
2022-08-04T11:25:34.981Z,16.1
2022-08-04T11:35:34.979Z,16.1
2022-08-04T11:45:34.976Z,16.1
2022-08-04T11:56:07.648Z,15.9
2022-08-04T12:00:34.987Z,16
2022-08-04T12:10:41.167Z,15.9
2022-08-04T12:20:40.575Z,15.9
2022-08-04T12:25:34.969Z,15.9
2022-08-04T12:30:58.369Z,16
2022-08-04T12:40:35.044Z,16
2022-08-04T12:50:34.982Z,15.8
2022-08-04T12:55:35.005Z,15.7
2022-08-04T13:05:34.983Z,15.7
2022-08-04T13:10:34.996Z,15.8
2022-08-04T13:20:34.992Z,15.8
2022-08-04T13:30:34.993Z,15.8
2022-08-04T13:35:54.451Z,15.9
2022-08-04T13:45:35.382Z,15.9
2022-08-04T13:55:34.996Z,16
2022-08-04T14:00:35.058Z,16
2022-08-04T14:10:34.992Z,16
2022-08-04T14:16:03.824Z,16.2
2022-08-04T14:25:35.622Z,16.3
2022-08-04T14:35:50.365Z,16.3
2022-08-04T14:40:35.016Z,16.3
2022-08-04T14:50:34.983Z,16.3
2022-08-04T15:00:34.999Z,16.2
2022-08-04T15:10:34.996Z,16.2
2022-08-04T15:15:37.439Z,16.2
2022-08-04T15:25:35.022Z,16.2
2022-08-04T15:35:38.860Z,16.2
2022-08-04T15:46:41.578Z,16.2
2022-08-04T15:50:35.006Z,16.3
2022-08-04T16:00:35.004Z,16.3
2022-08-04T16:10:34.993Z,16.3
2022-08-04T16:15:35.007Z,16.4
2022-08-04T16:25:35.120Z,16.4
2022-08-04T16:30:34.998Z,16.4
2022-08-04T16:40:37.008Z,16.4
2022-08-04T16:45:35.018Z,16.4
2022-08-04T16:55:35.020Z,16.4
2022-08-04T17:00:35.021Z,16.5
2022-08-04T17:05:39.199Z,16.5
2022-08-04T17:15:35.018Z,16.7
2022-08-04T17:25:51.775Z,16.6
2022-08-04T17:35:38.805Z,16.6
2022-08-04T17:40:35.019Z,16.6
2022-08-04T17:50:35.626Z,16.6
2022-08-04T17:55:35.020Z,16.6
2022-08-04T18:05:54.013Z,16.7
2022-08-04T18:10:38.455Z,16.6
2022-08-04T18:15:44.469Z,16.6
2022-08-04T18:25:51.622Z,16.6
2022-08-04T18:36:31.676Z,16.6
2022-08-04T18:40:48.686Z,16.6
2022-08-04T18:51:09.462Z,16.6
2022-08-04T19:00:35.031Z,16.6
2022-08-04T19:10:35.010Z,16.6
2022-08-04T19:20:36.996Z,16.6
2022-08-04T19:30:35.039Z,16.6
2022-08-04T19:40:35.037Z,16.6
2022-08-04T19:50:35.023Z,16.6
2022-08-04T19:55:37.307Z,16.6
2022-08-04T20:05:54.255Z,16.6
2022-08-04T20:10:35.036Z,16.6
2022-08-04T20:20:35.040Z,16.7
2022-08-04T20:30:35.055Z,16.7
2022-08-04T20:40:35.032Z,16.7
2022-08-04T20:45:56.823Z,16.8
2022-08-04T20:55:55.133Z,16.8
2022-08-04T21:05:35.028Z,17
2022-08-04T21:10:35.042Z,16.9
2022-08-04T21:15:58.057Z,17
2022-08-04T21:25:37.918Z,17.1
2022-08-04T21:30:52.271Z,17.1
2022-08-04T21:40:38.765Z,17.2
2022-08-04T21:45:36.451Z,17.2
2022-08-04T21:56:06.323Z,17.3
2022-08-04T22:00:35.058Z,17.3
2022-08-04T22:10:35.050Z,17.3
2022-08-04T22:20:35.058Z,17.3
2022-08-04T22:30:37.033Z,17.2
2022-08-04T22:40:35.043Z,17.2
2022-08-04T22:45:43.318Z,17.2
2022-08-04T22:50:35.058Z,17.2
2022-08-04T23:00:35.102Z,17.2
2022-08-04T23:10:35.043Z,17.2
2022-08-04T23:15:35.050Z,17.2
2022-08-04T23:26:07.807Z,17
2022-08-04T23:30:35.044Z,17.1
2022-08-04T23:35:35.074Z,17.1
2022-08-04T23:46:04.342Z,17.1
2022-08-04T23:50:35.058Z,17.1
